createdAt,value
2022-10-09T00:01:11.914Z,28.60
2022-10-09T00:03:40.720Z,28.50
2022-10-09T00:06:13.160Z,28.90
2022-10-09T00:08:41.051Z,28.80
2022-10-09T00:11:10.053Z,28.70
2022-10-09T00:13:37.747Z,28.40
2022-10-09T00:16:07.232Z,28.80
2022-10-09T00:18:34.937Z,29.60
2022-10-09T00:21:02.391Z,30.20
2022-10-09T00:23:29.373Z,30.50
2022-10-09T00:25:58.714Z,29.90
2022-10-09T00:28:27.579Z,29.80
2022-10-09T00:30:58.471Z,30.00
2022-10-09T00:33:25.705Z,29.80
2022-10-09T00:35:52.877Z,29.80
2022-10-09T00:38:19.984Z,29.90
2022-10-09T00:40:47.313Z,29.50
2022-10-09T00:43:18.358Z,29.60
2022-10-09T00:45:50.556Z,28.70
2022-10-09T00:48:18.760Z,29.00
2022-10-09T00:50:53.153Z,28.70
2022-10-09T00:53:22.908Z,29.00
2022-10-09T00:55:50.171Z,29.20
2022-10-09T00:58:17.378Z,29.10
2022-10-09T01:00:44.801Z,28.80
2022-10-09T01:03:12.133Z,29.00
2022-10-09T01:05:48.394Z,29.70
2022-10-09T01:08:30.068Z,29.90
2022-10-09T01:11:09.683Z,29.90
2022-10-09T01:13:56.025Z,30.00
2022-10-09T01:16:28.681Z,30.50
2022-10-09T01:19:04.597Z,29.80
2022-10-09T01:21:38.626Z,29.70
2022-10-09T01:24:35.777Z,29.70
2022-10-09T01:27:23.980Z,29.60
2022-10-09T01:30:00.263Z,29.50
2022-10-09T01:32:33.674Z,29.50
2022-10-09T01:35:01.426Z,29.70
2022-10-09T01:37:30.768Z,29.60
2022-10-09T01:39:58.702Z,29.50
2022-10-09T01:42:27.699Z,29.40
2022-10-09T01:44:54.659Z,29.40
2022-10-09T01:47:22.159Z,29.00
2022-10-09T01:50:02.200Z,28.80
2022-10-09T01:52:48.672Z,28.60
2022-10-09T01:55:49.272Z,29.10
2022-10-09T01:58:33.828Z,29.60
2022-10-09T02:01:09.055Z,29.80
2022-10-09T02:03:38.579Z,29.70
2022-10-09T02:06:07.382Z,30.20
2022-10-09T02:08:37.036Z,30.10
2022-10-09T02:11:04.543Z,29.80
2022-10-09T02:13:33.441Z,29.20
2022-10-09T02:16:36.848Z,28.40
2022-10-09T02:19:32.184Z,28.60
2022-10-09T02:22:12.170Z,29.00
2022-10-09T02:24:40.440Z,29.50
2022-10-09T02:27:08.019Z,29.50
2022-10-09T02:29:35.278Z,29.60
2022-10-09T02:32:02.233Z,29.90
2022-10-09T02:34:29.306Z,29.60
2022-10-09T02:36:56.393Z,29.70
2022-10-09T02:39:23.744Z,29.40
2022-10-09T02:41:50.758Z,29.10
2022-10-09T02:44:17.810Z,29.70
2022-10-09T02:46:44.790Z,29.50
2022-10-09T02:49:11.816Z,29.50
2022-10-09T02:51:38.960Z,29.20
2022-10-09T02:54:06.383Z,29.40
2022-10-09T02:56:37.977Z,29.40
2022-10-09T02:59:06.105Z,30.00
2022-10-09T03:01:33.200Z,29.70
2022-10-09T03:04:00.268Z,29.70
2022-10-09T03:06:28.728Z,29.70
2022-10-09T03:08:56.631Z,29.50
2022-10-09T03:11:24.865Z,29.20
2022-10-09T03:13:52.280Z,28.70
2022-10-09T03:16:21.345Z,28.50
2022-10-09T03:18:49.893Z,28.80
2022-10-09T03:21:20.742Z,29.50
2022-10-09T03:23:47.846Z,29.50
2022-10-09T03:26:17.975Z,29.30
2022-10-09T03:28:50.664Z,29.00
2022-10-09T03:31:39.637Z,28.50
2022-10-09T03:34:06.642Z,27.90
2022-10-09T03:36:33.710Z,27.90
2022-10-09T03:39:00.586Z,28.20
2022-10-09T03:41:27.633Z,27.80
2022-10-09T03:43:54.575Z,27.30
2022-10-09T03:46:21.749Z,27.50
2022-10-09T03:48:48.698Z,27.40
2022-10-09T03:51:15.768Z,27.70
2022-10-09T03:53:42.881Z,27.90
2022-10-09T03:56:09.845Z,28.00
2022-10-09T03:58:36.793Z,28.00
2022-10-09T04:01:03.863Z,28.40
2022-10-09T04:03:30.930Z,28.60
2022-10-09T04:05:58.039Z,28.70
2022-10-09T04:08:25.078Z,28.80
2022-10-09T04:10:59.753Z,28.70
2022-10-09T04:13:27.096Z,28.80
2022-10-09T04:15:54.707Z,28.90
2022-10-09T04:18:22.315Z,28.70
2022-10-09T04:20:51.147Z,28.10
2022-10-09T04:23:19.586Z,27.90
2022-10-09T04:25:46.740Z,27.90
2022-10-09T04:28:14.126Z,28.20
2022-10-09T04:30:42.128Z,28.20
2022-10-09T04:33:12.696Z,28.40
2022-10-09T04:35:49.847Z,28.70
2022-10-09T04:38:16.957Z,29.00
2022-10-09T04:40:44.090Z,29.10
2022-10-09T04:43:12.224Z,28.80
2022-10-09T04:45:42.187Z,28.90
2022-10-09T04:48:09.207Z,28.00
2022-10-09T04:50:39.189Z,28.00
2022-10-09T04:53:06.132Z,28.20
2022-10-09T04:55:33.042Z,28.30
2022-10-09T04:58:00.009Z,28.80
2022-10-09T05:00:26.889Z,28.70
2022-10-09T05:02:53.864Z,28.10
2022-10-09T05:05:20.784Z,27.90
2022-10-09T05:07:47.956Z,27.90
2022-10-09T05:10:14.961Z,27.50
2022-10-09T05:12:42.059Z,27.60
2022-10-09T05:15:10.680Z,28.10
2022-10-09T05:17:39.190Z,28.00
2022-10-09T05:20:06.622Z,27.90
2022-10-09T05:22:33.554Z,27.70
2022-10-09T05:25:00.547Z,27.50
2022-10-09T05:27:27.571Z,27.70
2022-10-09T05:29:54.480Z,28.10
2022-10-09T05:32:23.065Z,28.50
2022-10-09T05:34:49.968Z,28.60
2022-10-09T05:37:16.857Z,28.40
2022-10-09T05:39:43.789Z,28.60
2022-10-09T05:42:10.951Z,28.50
2022-10-09T05:44:37.955Z,28.00
2022-10-09T05:47:04.943Z,27.90
2022-10-09T05:49:31.933Z,27.40
2022-10-09T05:51:59.335Z,27.40
2022-10-09T05:54:26.539Z,27.30
2022-10-09T05:56:53.482Z,27.30
2022-10-09T05:59:20.465Z,27.40
2022-10-09T06:01:50.262Z,27.00
2022-10-09T06:04:23.314Z,26.50
2022-10-09T06:06:50.886Z,26.10
2022-10-09T06:09:22.278Z,25.90
2022-10-09T06:11:51.002Z,25.90
2022-10-09T06:14:20.797Z,26.20
2022-10-09T06:16:47.927Z,26.30
2022-10-09T06:19:17.200Z,26.10
2022-10-09T06:21:45.128Z,25.90
2022-10-09T06:24:28.270Z,26.10
2022-10-09T06:26:57.340Z,25.10
2022-10-09T06:29:24.610Z,25.10
2022-10-09T06:31:56.454Z,25.10
2022-10-09T06:34:23.809Z,25.50
2022-10-09T06:36:50.931Z,25.70
2022-10-09T06:39:20.685Z,25.80
2022-10-09T06:41:50.596Z,25.90
2022-10-09T06:44:17.568Z,26.00
2022-10-09T06:46:48.659Z,25.80
2022-10-09T06:49:15.468Z,25.40
2022-10-09T06:51:42.466Z,25.50
2022-10-09T06:54:14.318Z,24.90
2022-10-09T06:56:41.329Z,24.70
2022-10-09T06:59:08.909Z,24.70
2022-10-09T07:01:35.922Z,24.90
2022-10-09T07:04:07.139Z,24.70
2022-10-09T07:06:37.751Z,24.70
2022-10-09T07:09:07.533Z,24.40
2022-10-09T07:11:37.442Z,24.30
2022-10-09T07:14:06.717Z,24.00
2022-10-09T07:16:39.195Z,24.10
2022-10-09T07:19:08.466Z,24.30
2022-10-09T07:21:36.089Z,24.30
2022-10-09T07:24:05.357Z,24.50
2022-10-09T07:26:36.779Z,24.90
2022-10-09T07:29:05.969Z,24.90
2022-10-09T07:31:32.917Z,25.00
2022-10-09T07:34:00.342Z,24.90
2022-10-09T07:36:27.437Z,24.90
2022-10-09T07:38:56.725Z,24.70
2022-10-09T07:41:26.287Z,24.60
2022-10-09T07:43:53.686Z,24.60
2022-10-09T07:46:22.434Z,24.50
2022-10-09T07:48:50.113Z,24.40
2022-10-09T07:51:19.942Z,24.50
2022-10-09T07:53:49.483Z,24.00
2022-10-09T07:56:22.034Z,24.00
2022-10-09T07:58:53.908Z,23.50
2022-10-09T08:01:25.779Z,23.50
2022-10-09T08:03:52.733Z,23.00
2022-10-09T08:06:20.257Z,22.90
2022-10-09T08:08:52.270Z,23.30
2022-10-09T08:11:20.472Z,23.20
2022-10-09T08:13:49.657Z,23.30
2022-10-09T08:16:18.460Z,22.80
2022-10-09T08:18:46.105Z,23.20
2022-10-09T08:21:16.540Z,23.20
2022-10-09T08:23:45.595Z,22.80
2022-10-09T08:26:18.114Z,22.70
2022-10-09T08:28:49.997Z,22.90
2022-10-09T08:31:18.498Z,23.60
2022-10-09T08:33:45.660Z,23.20
2022-10-09T08:36:15.358Z,22.90
2022-10-09T08:38:48.224Z,23.00
2022-10-09T08:41:18.547Z,23.10
2022-10-09T08:43:50.205Z,23.00
2022-10-09T08:46:35.538Z,23.00
2022-10-09T08:49:04.102Z,23.20
2022-10-09T08:51:36.608Z,22.50
2022-10-09T08:54:20.131Z,22.10
2022-10-09T08:56:49.885Z,21.90
2022-10-09T08:59:17.051Z,21.60
2022-10-09T09:02:25.719Z,21.20
2022-10-09T09:05:24.521Z,20.70
2022-10-09T09:08:17.459Z,20.50
2022-10-09T09:11:17.117Z,20.90
2022-10-09T09:13:53.459Z,21.00
2022-10-09T09:16:48.768Z,21.10
2022-10-09T09:19:44.562Z,21.20
2022-10-09T09:22:16.074Z,21.40
2022-10-09T09:24:51.523Z,20.70
2022-10-09T09:27:21.402Z,20.10
2022-10-09T09:30:06.877Z,20.20
2022-10-09T09:32:34.053Z,20.00
2022-10-09T09:35:28.900Z,20.90
2022-10-09T09:37:56.352Z,21.10
2022-10-09T09:40:38.477Z,21.10
2022-10-09T09:43:18.959Z,21.00
2022-10-09T09:45:47.099Z,21.20
2022-10-09T09:48:22.012Z,21.40
2022-10-09T09:51:10.069Z,21.20
2022-10-09T09:53:43.660Z,21.20
2022-10-09T09:56:11.047Z,21.90
2022-10-09T09:58:47.673Z,22.20
2022-10-09T10:01:29.529Z,22.30
2022-10-09T10:03:59.244Z,22.60
2022-10-09T10:06:31.913Z,22.80
2022-10-09T10:09:04.959Z,23.10
2022-10-09T10:11:35.231Z,22.40
2022-10-09T10:14:09.638Z,20.90
2022-10-09T10:16:38.938Z,21.10
2022-10-09T10:19:06.849Z,21.50
2022-10-09T10:22:00.408Z,21.70
2022-10-09T10:24:44.628Z,22.30
2022-10-09T10:27:20.764Z,22.70
2022-10-09T10:29:50.772Z,22.90
2022-10-09T10:32:22.873Z,22.60
2022-10-09T10:35:00.355Z,22.40
2022-10-09T10:37:42.521Z,21.80
2022-10-09T10:40:37.943Z,21.70
2022-10-09T10:43:21.977Z,22.60
2022-10-09T10:46:13.151Z,21.30
2022-10-09T10:48:48.109Z,20.80
2022-10-09T10:51:18.161Z,19.60
2022-10-09T10:54:12.287Z,19.10
2022-10-09T10:56:56.562Z,19.40
2022-10-09T10:59:23.888Z,20.10
2022-10-09T11:02:32.741Z,19.50
2022-10-09T11:05:18.810Z,20.20
2022-10-09T11:08:08.193Z,19.30
2022-10-09T11:10:50.984Z,18.60
2022-10-09T11:13:29.859Z,18.70
2022-10-09T11:16:34.408Z,18.60
2022-10-09T11:19:07.225Z,18.80
2022-10-09T11:22:08.673Z,19.30
2022-10-09T11:24:57.030Z,19.40
2022-10-09T11:27:50.184Z,19.60
2022-10-09T11:30:18.719Z,19.80
2022-10-09T11:32:58.045Z,19.90
2022-10-09T11:35:29.505Z,20.00
2022-10-09T11:38:03.923Z,20.30
2022-10-09T11:40:32.896Z,20.30
2022-10-09T11:43:26.168Z,20.40
2022-10-09T11:46:05.184Z,20.40
2022-10-09T11:49:05.890Z,20.70
2022-10-09T11:51:36.113Z,20.90
2022-10-09T11:54:05.186Z,20.90
2022-10-09T11:56:32.492Z,20.90
2022-10-09T11:59:05.870Z,20.70
2022-10-09T12:01:39.725Z,21.70
2022-10-09T12:04:12.546Z,20.80
2022-10-09T12:06:55.501Z,20.80
2022-10-09T12:09:48.569Z,20.60
2022-10-09T12:12:18.562Z,20.50
2022-10-09T12:14:48.789Z,21.10
2022-10-09T12:17:24.599Z,21.10
2022-10-09T12:20:00.954Z,21.50
2022-10-09T12:23:01.497Z,21.60
2022-10-09T12:25:42.175Z,21.70
2022-10-09T12:28:24.379Z,21.20
2022-10-09T12:30:52.756Z,21.60
2022-10-09T12:33:39.576Z,21.80
2022-10-09T12:36:13.792Z,22.20
2022-10-09T12:38:41.758Z,22.50
2022-10-09T12:41:22.218Z,22.40
2022-10-09T12:43:51.991Z,22.00
2022-10-09T12:46:39.356Z,22.20
2022-10-09T12:49:16.645Z,22.50
2022-10-09T12:51:55.302Z,22.70
2022-10-09T12:54:25.257Z,22.30
2022-10-09T12:56:54.543Z,21.50
2022-10-09T12:59:23.494Z,21.40
2022-10-09T13:01:55.709Z,20.90
2022-10-09T13:04:35.850Z,20.50
2022-10-09T13:07:07.826Z,20.50
2022-10-09T13:09:37.947Z,20.60
2022-10-09T13:12:19.751Z,20.50
2022-10-09T13:14:55.440Z,20.50
2022-10-09T13:17:25.753Z,20.60
2022-10-09T13:19:54.920Z,21.10
2022-10-09T13:22:26.896Z,21.30
2022-10-09T13:24:56.752Z,21.00
2022-10-09T13:27:31.345Z,20.90
2022-10-09T13:29:58.799Z,20.50
2022-10-09T13:32:25.786Z,19.70
2022-10-09T13:34:55.442Z,19.80
2022-10-09T13:37:23.675Z,19.20
2022-10-09T13:39:55.571Z,19.10
2022-10-09T13:42:25.937Z,19.40
2022-10-09T13:44:53.368Z,19.30
2022-10-09T13:47:24.491Z,18.90
2022-10-09T13:49:52.073Z,18.40
2022-10-09T13:52:20.263Z,18.90
2022-10-09T13:54:48.843Z,18.00
2022-10-09T13:57:15.749Z,17.80
2022-10-09T13:59:42.852Z,18.00
2022-10-09T14:02:11.530Z,17.90
2022-10-09T14:04:40.255Z,18.10
2022-10-09T14:07:07.289Z,18.20
2022-10-09T14:09:34.193Z,17.50
2022-10-09T14:12:01.149Z,17.50
2022-10-09T14:14:28.155Z,17.50
2022-10-09T14:16:55.108Z,17.60
2022-10-09T14:19:27.390Z,17.60
2022-10-09T14:21:58.315Z,17.10
2022-10-09T14:24:26.334Z,17.00
2022-10-09T14:26:54.468Z,17.20
2022-10-09T14:29:21.463Z,17.10
2022-10-09T14:31:51.435Z,17.30
2022-10-09T14:34:18.467Z,17.30
2022-10-09T14:36:45.687Z,17.00
2022-10-09T14:39:12.991Z,17.20
2022-10-09T14:41:40.003Z,17.20
2022-10-09T14:44:07.461Z,17.40
2022-10-09T14:46:35.100Z,17.50
2022-10-09T14:49:07.480Z,17.90
2022-10-09T14:51:39.289Z,17.70
2022-10-09T14:54:07.447Z,18.00
2022-10-09T14:56:35.190Z,17.70
2022-10-09T14:59:04.242Z,17.40
2022-10-09T15:01:32.282Z,17.40
2022-10-09T15:04:04.099Z,17.50
2022-10-09T15:06:31.415Z,17.90
2022-10-09T15:09:03.222Z,18.10
2022-10-09T15:11:34.409Z,18.40
2022-10-09T15:14:02.250Z,18.20
2022-10-09T15:16:29.600Z,18.00
2022-10-09T15:18:57.177Z,18.30
2022-10-09T15:21:27.224Z,18.20
2022-10-09T15:23:55.442Z,18.60
2022-10-09T15:26:23.490Z,18.80
2022-10-09T15:28:50.570Z,19.00
2022-10-09T15:31:22.248Z,19.30
2022-10-09T15:33:51.686Z,19.50
2022-10-09T15:36:19.748Z,19.60
2022-10-09T15:38:47.329Z,19.80
2022-10-09T15:41:26.195Z,20.20
2022-10-09T15:43:59.183Z,20.10
2022-10-09T15:46:26.506Z,20.60
2022-10-09T15:48:53.839Z,20.20
2022-10-09T15:51:23.209Z,20.20
2022-10-09T15:53:51.732Z,20.50
2022-10-09T15:56:26.970Z,20.60
2022-10-09T15:58:56.297Z,20.80
2022-10-09T16:01:26.620Z,20.90
2022-10-09T16:03:53.859Z,21.00
2022-10-09T16:06:23.559Z,21.10
2022-10-09T16:08:51.414Z,21.50
2022-10-09T16:11:21.890Z,21.50
2022-10-09T16:13:52.380Z,21.50
2022-10-09T16:16:21.747Z,21.60
2022-10-09T16:18:49.333Z,21.70
2022-10-09T16:21:25.752Z,22.00
2022-10-09T16:23:58.109Z,22.80
2022-10-09T16:26:28.248Z,22.00
2022-10-09T16:28:55.263Z,22.50
2022-10-09T16:31:25.025Z,22.10
2022-10-09T16:33:54.328Z,22.30
2022-10-09T16:36:21.608Z,22.30
2022-10-09T16:38:49.046Z,22.40
2022-10-09T16:41:18.653Z,22.30
2022-10-09T16:43:47.299Z,22.50
2022-10-09T16:46:29.453Z,22.40
2022-10-09T16:48:58.285Z,22.40
2022-10-09T16:51:33.642Z,22.50
2022-10-09T16:54:02.314Z,22.40
2022-10-09T16:56:36.390Z,22.50
2022-10-09T16:59:07.199Z,22.60
2022-10-09T17:01:38.159Z,22.60
2022-10-09T17:04:05.411Z,22.50
2022-10-09T17:06:32.471Z,22.60
2022-10-09T17:09:00.155Z,23.20
2022-10-09T17:11:29.986Z,22.70
2022-10-09T17:13:57.616Z,22.90
2022-10-09T17:16:28.721Z,22.90
2022-10-09T17:18:55.996Z,23.10
2022-10-09T17:21:23.465Z,23.10
2022-10-09T17:23:55.416Z,23.10
2022-10-09T17:26:23.254Z,23.20
2022-10-09T17:28:51.025Z,23.20
2022-10-09T17:31:24.404Z,23.30
2022-10-09T17:33:56.086Z,23.30
2022-10-09T17:36:26.617Z,23.30
2022-10-09T17:38:53.850Z,23.40
2022-10-09T17:41:23.850Z,23.40
2022-10-09T17:43:52.993Z,23.50
2022-10-09T17:46:20.188Z,23.40
2022-10-09T17:48:53.264Z,23.50
2022-10-09T17:51:27.845Z,23.40
2022-10-09T17:54:01.430Z,23.30
2022-10-09T17:56:30.577Z,23.30
2022-10-09T17:59:00.093Z,23.30
2022-10-09T18:01:27.375Z,23.20
2022-10-09T18:03:54.488Z,23.30
2022-10-09T18:06:23.994Z,23.30
2022-10-09T18:08:53.200Z,23.30
2022-10-09T18:11:22.483Z,23.30
2022-10-09T18:13:50.189Z,23.30
2022-10-09T18:16:25.118Z,23.40
2022-10-09T18:18:52.025Z,23.50
2022-10-09T18:21:19.073Z,23.50
2022-10-09T18:23:47.590Z,23.50
2022-10-09T18:26:17.274Z,23.40
2022-10-09T18:28:48.182Z,23.30
2022-10-09T18:31:21.308Z,23.40
2022-10-09T18:33:50.652Z,23.30
2022-10-09T18:36:24.055Z,23.30
2022-10-09T18:38:53.912Z,23.30
2022-10-09T18:41:22.545Z,23.30
2022-10-09T18:43:50.990Z,23.30
2022-10-09T18:46:21.265Z,23.30
2022-10-09T18:48:48.572Z,23.30
2022-10-09T18:51:18.404Z,23.30
2022-10-09T18:53:49.955Z,23.20
2022-10-09T18:56:19.231Z,23.20
2022-10-09T18:58:48.295Z,23.20
2022-10-09T19:01:15.828Z,23.20
2022-10-09T19:03:45.986Z,23.80
2022-10-09T19:06:16.815Z,23.20
2022-10-09T19:08:43.971Z,23.10
2022-10-09T19:11:14.426Z,23.10
2022-10-09T19:13:42.847Z,23.10
2022-10-09T19:16:10.122Z,23.20
2022-10-09T19:18:38.086Z,23.20
2022-10-09T19:21:05.332Z,23.30
2022-10-09T19:23:32.303Z,23.30
2022-10-09T19:26:00.521Z,23.20
2022-10-09T19:28:37.727Z,23.20
2022-10-09T19:31:06.654Z,23.20
2022-10-09T19:33:34.562Z,23.30
2022-10-09T19:36:02.123Z,23.50
2022-10-09T19:38:29.317Z,23.50
2022-10-09T19:40:56.605Z,23.50
2022-10-09T19:43:25.213Z,23.50
2022-10-09T19:46:02.444Z,23.40
2022-10-09T19:48:29.614Z,23.40
2022-10-09T19:50:56.823Z,23.40
2022-10-09T19:53:23.991Z,23.40
2022-10-09T19:55:51.481Z,23.30
2022-10-09T19:58:20.170Z,23.30
2022-10-09T20:00:47.499Z,23.40
2022-10-09T20:03:17.121Z,23.40
2022-10-09T20:05:44.014Z,23.40
2022-10-09T20:08:12.184Z,23.40
2022-10-09T20:10:39.862Z,23.40
2022-10-09T20:13:10.267Z,23.60
2022-10-09T20:15:43.029Z,23.40
2022-10-09T20:18:10.022Z,23.40
2022-10-09T20:20:38.789Z,23.40
2022-10-09T20:23:05.790Z,23.50
2022-10-09T20:25:32.876Z,23.50
2022-10-09T20:27:59.944Z,23.50
2022-10-09T20:30:26.877Z,24.00
2022-10-09T20:32:59.185Z,23.40
2022-10-09T20:35:26.795Z,23.40
2022-10-09T20:37:53.674Z,23.40
2022-10-09T20:40:22.563Z,23.40
2022-10-09T20:42:50.704Z,23.40
2022-10-09T20:45:18.364Z,23.50
2022-10-09T20:47:45.232Z,23.40
2022-10-09T20:50:12.172Z,23.40
2022-10-09T20:52:39.065Z,23.40
2022-10-09T20:55:06.436Z,23.40
2022-10-09T20:57:33.366Z,23.50
2022-10-09T21:00:00.246Z,23.40
2022-10-09T21:02:27.152Z,23.40
2022-10-09T21:04:54.092Z,23.40
2022-10-09T21:07:20.998Z,24.00
2022-10-09T21:09:48.153Z,23.50
2022-10-09T21:12:15.140Z,23.60
2022-10-09T21:14:42.046Z,23.50
2022-10-09T21:17:09.156Z,23.60
2022-10-09T21:19:36.307Z,23.40
2022-10-09T21:22:03.335Z,23.50
2022-10-09T21:24:30.411Z,24.20
2022-10-09T21:26:57.553Z,23.60
2022-10-09T21:29:24.707Z,23.70
2022-10-09T21:31:51.609Z,23.70
2022-10-09T21:34:18.536Z,23.90
2022-10-09T21:37:16.431Z,23.90
2022-10-09T21:39:35.181Z,23.90
2022-10-09T21:42:02.282Z,23.90
2022-10-09T21:44:30.173Z,23.80
2022-10-09T21:46:57.051Z,24.10
2022-10-09T21:49:27.313Z,24.10
2022-10-09T21:51:55.243Z,24.70
2022-10-09T21:54:22.151Z,24.20
2022-10-09T21:56:49.078Z,24.40
2022-10-09T21:59:16.185Z,24.20
2022-10-09T22:01:43.226Z,24.10
2022-10-09T22:04:10.209Z,24.30
2022-10-09T22:06:37.141Z,24.20
2022-10-09T22:09:04.202Z,24.00
2022-10-09T22:11:31.138Z,24.20
2022-10-09T22:13:58.260Z,24.60
2022-10-09T22:16:25.171Z,24.50
2022-10-09T22:18:52.209Z,24.30
2022-10-09T22:21:19.901Z,24.50
2022-10-09T22:23:47.079Z,24.40
2022-10-09T22:26:17.934Z,24.30
2022-10-09T22:28:46.160Z,24.60
2022-10-09T22:31:19.348Z,24.60
2022-10-09T22:33:54.665Z,24.60
2022-10-09T22:36:25.681Z,24.60
2022-10-09T22:38:57.795Z,24.30
2022-10-09T22:41:28.332Z,24.40
2022-10-09T22:43:57.499Z,24.50
2022-10-09T22:46:30.717Z,24.30
2022-10-09T22:48:58.258Z,24.20
2022-10-09T22:51:27.717Z,24.20
2022-10-09T22:53:59.116Z,24.10
2022-10-09T22:56:32.851Z,24.20
2022-10-09T22:59:00.408Z,24.20
2022-10-09T23:01:48.565Z,24.40
2022-10-09T23:04:18.309Z,24.20
2022-10-09T23:06:48.840Z,24.00
2022-10-09T23:09:15.817Z,24.00
2022-10-09T23:11:43.231Z,24.10
2022-10-09T23:14:11.534Z,24.30
2022-10-09T23:16:39.276Z,24.30
2022-10-09T23:19:07.299Z,24.20
2022-10-09T23:21:35.997Z,24.10
2022-10-09T23:24:03.273Z,24.20
2022-10-09T23:26:31.873Z,24.30
2022-10-09T23:29:00.972Z,24.50
2022-10-09T23:31:28.782Z,24.90
2022-10-09T23:33:56.660Z,24.80
2022-10-09T23:36:26.314Z,24.70
2022-10-09T23:38:53.893Z,24.60
2022-10-09T23:41:23.682Z,24.60
2022-10-09T23:43:50.901Z,24.60
2022-10-09T23:46:20.856Z,24.50
2022-10-09T23:48:48.642Z,24.60
2022-10-09T23:51:16.915Z,24.30
2022-10-09T23:53:44.403Z,24.40
2022-10-09T23:56:18.563Z,24.20
2022-10-09T23:58:45.982Z,24.20
